createdAt,value
2019-03-03T13:08:59.861Z,21.44
2019-03-03T13:11:31.788Z,21.75
2019-03-03T13:14:05.034Z,21.56
2019-03-03T13:16:38.270Z,21.20
2019-03-03T13:19:11.528Z,21.11
2019-03-03T13:21:44.767Z,21.06
2019-03-03T13:24:18.024Z,21.03
2019-03-03T13:26:51.265Z,21.02
2019-03-03T13:29:24.545Z,21.03
2019-03-03T13:31:57.762Z,21.01
2019-03-03T13:34:31.149Z,21.02
2019-03-03T13:37:04.381Z,21.04
2019-03-03T13:39:37.633Z,21.09
2019-03-03T13:42:10.888Z,21.17
2019-03-03T13:44:44.139Z,21.24
2019-03-03T13:47:17.382Z,21.30
2019-03-03T13:49:50.621Z,21.36
2019-03-03T13:52:23.865Z,21.45
2019-03-03T13:54:57.113Z,21.52
2019-03-03T13:57:30.346Z,21.58
2019-03-03T14:00:06.004Z,21.62
2019-03-03T14:02:39.236Z,21.65
2019-03-03T14:05:12.499Z,21.67
2019-03-03T14:07:45.736Z,21.71
2019-03-03T14:10:18.983Z,21.75
2019-03-03T14:12:52.214Z,21.80
2019-03-03T14:15:25.502Z,21.87
2019-03-03T14:17:58.741Z,22.08
2019-03-03T14:20:31.993Z,22.11
2019-03-03T14:23:05.225Z,22.13
2019-03-03T14:25:38.490Z,22.18
2019-03-03T14:28:11.725Z,22.20
2019-03-03T14:30:44.967Z,22.19
2019-03-03T14:33:18.200Z,22.19
2019-03-03T14:35:51.436Z,22.18
2019-03-03T14:38:24.671Z,22.13
2019-03-03T14:40:57.937Z,22.05
2019-03-03T14:43:31.173Z,21.93
2019-03-03T14:46:04.421Z,22.00
2019-03-03T14:48:37.653Z,22.03
2019-03-03T14:51:10.903Z,22.18
2019-03-03T14:53:44.146Z,22.30
2019-03-03T14:56:17.401Z,22.40
2019-03-03T14:58:50.633Z,22.54
2019-03-03T15:01:23.894Z,22.69
2019-03-03T15:03:57.129Z,22.84
2019-03-03T15:06:30.377Z,22.96
2019-03-03T15:09:04.093Z,23.03
2019-03-03T15:11:38.968Z,23.09
2019-03-03T15:14:12.202Z,23.11
2019-03-03T15:16:45.452Z,23.12
2019-03-03T15:19:18.712Z,23.13
2019-03-03T15:21:51.951Z,23.14
2019-03-03T15:24:25.258Z,23.15
2019-03-03T15:26:58.511Z,23.17
2019-03-03T15:29:31.746Z,23.18
2019-03-03T15:32:05.012Z,23.14
2019-03-03T15:34:38.546Z,23.16
2019-03-03T15:37:11.790Z,23.18
2019-03-03T15:39:45.041Z,23.16
2019-03-03T15:42:18.286Z,23.11
2019-03-03T15:44:51.531Z,23.10
2019-03-03T15:47:24.782Z,23.08
2019-03-03T15:49:58.009Z,23.02
2019-03-03T15:52:31.258Z,22.97
2019-03-03T15:55:09.945Z,22.97
2019-03-03T15:57:43.196Z,22.96
2019-03-03T16:00:30.787Z,22.97
2019-03-03T16:03:04.112Z,22.96
2019-03-03T16:05:37.348Z,22.95
2019-03-03T16:08:10.603Z,22.97
2019-03-03T16:10:43.848Z,22.97
2019-03-03T16:13:17.112Z,22.94
2019-03-03T16:15:54.404Z,22.95
2019-03-03T16:18:27.658Z,22.93
2019-03-03T16:21:00.896Z,22.89
2019-03-03T16:23:34.133Z,22.85
2019-03-03T16:26:07.356Z,22.80
2019-03-03T16:28:40.603Z,22.74
2019-03-03T16:31:13.835Z,22.71
2019-03-03T16:33:47.075Z,22.70
2019-03-03T16:36:20.314Z,22.72
2019-03-03T16:38:53.571Z,22.72
2019-03-03T16:41:26.806Z,22.64
2019-03-03T16:44:00.048Z,22.72
2019-03-03T16:46:33.297Z,22.75
2019-03-03T16:49:06.549Z,22.80
2019-03-03T16:51:39.772Z,22.83
2019-03-03T16:54:13.029Z,22.85
2019-03-03T16:56:46.255Z,22.88
2019-03-03T16:59:19.514Z,22.92
2019-03-03T17:01:52.748Z,22.96
2019-03-03T17:04:26.008Z,23.03
2019-03-03T17:06:59.252Z,23.10
2019-03-03T17:09:32.507Z,23.11
2019-03-03T17:12:05.751Z,23.10
2019-03-03T17:14:39.003Z,23.08
2019-03-03T17:17:12.240Z,23.03
2019-03-03T17:19:45.511Z,23.06
2019-03-03T17:22:18.743Z,23.07
2019-03-03T17:24:51.994Z,22.97
2019-03-03T17:27:25.221Z,22.91
2019-03-03T17:29:58.469Z,22.91
2019-03-03T17:32:31.716Z,22.94
2019-03-03T17:35:05.593Z,22.94
2019-03-03T17:37:38.824Z,22.94
2019-03-03T17:40:17.081Z,22.94
2019-03-03T17:42:50.280Z,22.98
2019-03-03T17:45:23.653Z,22.94
2019-03-03T17:47:56.905Z,22.91
2019-03-03T17:50:30.519Z,22.90
2019-03-03T17:53:03.744Z,22.87
2019-03-03T17:55:36.989Z,22.87
2019-03-03T17:58:10.808Z,22.87
2019-03-03T18:00:44.048Z,22.84
2019-03-03T18:03:17.298Z,22.82
2019-03-03T18:05:50.535Z,22.85
2019-03-03T18:08:23.764Z,22.88
2019-03-03T18:10:57.003Z,22.90
2019-03-03T18:13:30.234Z,22.90
2019-03-03T18:16:03.477Z,22.88
2019-03-03T18:18:37.685Z,22.84
2019-03-03T18:21:10.928Z,22.81
2019-03-03T18:23:44.168Z,22.74
2019-03-03T18:26:17.420Z,22.70
2019-03-03T18:28:50.648Z,22.62
2019-03-03T18:31:23.895Z,22.53
2019-03-03T18:33:57.127Z,22.46
2019-03-03T18:36:30.371Z,22.40
2019-03-03T18:39:05.141Z,22.35
2019-03-03T18:41:39.452Z,22.31
2019-03-03T18:44:12.675Z,22.28
2019-03-03T18:46:45.939Z,22.26
2019-03-03T18:49:20.146Z,22.25
2019-03-03T18:51:53.390Z,22.22
2019-03-03T18:54:26.640Z,22.18
2019-03-03T18:56:59.879Z,22.11
2019-03-03T18:59:33.102Z,22.08
2019-03-03T19:02:06.637Z,22.05
2019-03-03T19:04:39.985Z,22.01
2019-03-03T19:07:13.184Z,21.97
2019-03-03T19:09:46.406Z,21.93
2019-03-03T19:12:19.650Z,21.90
2019-03-03T19:14:52.875Z,21.87
2019-03-03T19:17:27.081Z,21.84
2019-03-03T19:20:00.313Z,21.82
2019-03-03T19:22:33.547Z,21.81
2019-03-03T19:25:09.315Z,21.78
2019-03-03T19:27:42.548Z,21.77
2019-03-03T19:30:21.027Z,21.74
2019-03-03T19:33:15.617Z,21.74
2019-03-03T19:35:48.846Z,21.70
2019-03-03T19:38:22.090Z,21.69
2019-03-03T19:40:55.316Z,21.65
2019-03-03T19:43:30.617Z,21.66
2019-03-03T19:46:06.860Z,21.66
2019-03-03T19:48:40.097Z,21.67
2019-03-03T19:51:13.350Z,21.64
2019-03-03T19:53:46.582Z,21.64
2019-03-03T19:56:19.814Z,21.64
2019-03-03T19:58:53.054Z,21.65
2019-03-03T20:01:26.281Z,21.64
2019-03-03T20:03:59.515Z,21.64
2019-03-03T20:06:32.743Z,21.63
2019-03-03T20:09:06.452Z,21.61
2019-03-03T20:11:41.151Z,21.60
2019-03-03T20:14:14.390Z,21.59
2019-03-03T20:16:47.623Z,21.60
2019-03-03T20:19:20.879Z,21.59
2019-03-03T20:21:54.115Z,21.59
2019-03-03T20:24:27.363Z,21.59
2019-03-03T20:27:00.598Z,21.58
2019-03-03T20:29:33.838Z,21.57
2019-03-03T20:32:07.065Z,21.58
2019-03-03T20:34:41.724Z,21.55
2019-03-03T20:37:18.042Z,21.55
2019-03-03T20:39:51.285Z,21.55
2019-03-03T20:42:24.530Z,21.54
2019-03-03T20:44:58.170Z,21.53
2019-03-03T20:47:31.407Z,21.57
2019-03-03T20:50:11.006Z,21.58
2019-03-03T20:52:44.226Z,21.57
2019-03-03T20:55:21.470Z,21.57
2019-03-03T20:57:54.701Z,21.56
2019-03-03T21:00:32.424Z,21.48
2019-03-03T21:03:05.654Z,21.50
2019-03-03T21:05:38.895Z,21.48
2019-03-03T21:08:12.117Z,21.47
2019-03-03T21:10:45.367Z,21.49
2019-03-03T21:13:18.600Z,21.50
2019-03-03T21:15:51.835Z,21.51
2019-03-03T21:18:25.085Z,21.56
2019-03-03T21:20:58.319Z,21.57
2019-03-03T21:23:31.561Z,21.58
2019-03-03T21:26:04.792Z,21.60
2019-03-03T21:28:38.028Z,21.62
2019-03-03T21:31:11.305Z,21.64
2019-03-03T21:33:44.770Z,21.70
2019-03-03T21:36:18.026Z,21.74
2019-03-03T21:38:51.259Z,21.80
2019-03-03T21:41:24.515Z,21.86
2019-03-03T21:43:57.740Z,21.89
2019-03-03T21:46:30.998Z,21.87
2019-03-03T21:49:04.244Z,21.83
2019-03-03T21:51:38.448Z,21.82
2019-03-03T21:54:11.685Z,21.82
2019-03-03T21:56:44.946Z,21.83
2019-03-03T21:59:18.171Z,21.83
2019-03-03T22:01:51.412Z,21.81
2019-03-03T22:04:24.650Z,21.79
2019-03-03T22:06:57.902Z,21.76
2019-03-03T22:09:31.135Z,21.75
2019-03-03T22:12:04.385Z,21.74
2019-03-03T22:14:37.608Z,21.74
2019-03-03T22:17:10.847Z,21.70
2019-03-03T22:19:44.077Z,21.62
2019-03-03T22:22:17.321Z,21.70
2019-03-03T22:24:50.554Z,21.74
2019-03-03T22:27:23.785Z,21.74
2019-03-03T22:29:57.013Z,21.72
2019-03-03T22:32:30.259Z,21.70
2019-03-03T22:35:05.232Z,21.71
2019-03-03T22:37:38.484Z,21.72
2019-03-03T22:40:19.641Z,21.72
2019-03-03T22:42:52.886Z,21.71
2019-03-03T22:45:26.118Z,21.71
2019-03-03T22:47:59.351Z,21.68
2019-03-03T22:50:32.581Z,21.65
2019-03-03T22:53:05.824Z,21.67
2019-03-03T22:55:40.485Z,21.67
2019-03-03T22:58:13.883Z,21.64
2019-03-03T23:00:52.844Z,21.63
2019-03-03T23:03:38.820Z,21.65
2019-03-03T23:06:23.601Z,21.62
2019-03-03T23:09:11.957Z,21.61
2019-03-03T23:12:08.240Z,21.57
2019-03-03T23:15:02.715Z,21.52
2019-03-03T23:18:00.284Z,21.47
2019-03-03T23:20:53.234Z,21.40
2019-03-03T23:23:50.632Z,21.34
2019-03-03T23:26:23.876Z,21.29
2019-03-03T23:28:58.167Z,21.24
2019-03-03T23:31:31.412Z,21.21
2019-03-03T23:34:04.649Z,21.17
2019-03-03T23:36:37.890Z,21.11
2019-03-03T23:39:11.116Z,21.09
2019-03-03T23:41:44.370Z,21.04
2019-03-03T23:44:17.599Z,21.04
2019-03-03T23:46:50.856Z,21.00
2019-03-03T23:49:24.085Z,20.99
2019-03-03T23:51:57.348Z,20.96
2019-03-03T23:54:30.579Z,20.94
2019-03-03T23:57:03.834Z,20.92
2019-03-03T23:59:37.059Z,20.90
